sensor_id;sensor_type;location;lat;lon;timestamp;P1;durP1;ratioP1;P2;durP2;ratioP2
22614;SDS011;11474;50.790;0.298;2023-10-31T00:01:23;19.40;;;10.40;;
22614;SDS011;11474;50.790;0.298;2023-10-31T00:03:49;15.97;;;9.90;;
22614;SDS011;11474;50.790;0.298;2023-10-31T00:06:15;18.45;;;10.13;;
22614;SDS011;11474;50.790;0.298;2023-10-31T00:08:41;20.15;;;10.02;;
22614;SDS011;11474;50.790;0.298;2023-10-31T00:11:08;19.58;;;10.60;;
22614;SDS011;11474;50.790;0.298;2023-10-31T00:13:34;14.88;;;7.72;;
22614;SDS011;11474;50.790;0.298;2023-10-31T00:16:00;15.18;;;6.63;;
22614;SDS011;11474;50.790;0.298;2023-10-31T00:18:26;12.90;;;6.20;;
22614;SDS011;11474;50.790;0.298;2023-10-31T00:20:52;14.47;;;5.17;;
22614;SDS011;11474;50.790;0.298;2023-10-31T00:23:18;10.88;;;5.20;;
22614;SDS011;11474;50.790;0.298;2023-10-31T00:25:45;21.05;;;5.40;;
22614;SDS011;11474;50.790;0.298;2023-10-31T00:28:11;10.82;;;5.82;;
22614;SDS011;11474;50.790;0.298;2023-10-31T00:30:37;19.35;;;5.45;;
22614;SDS011;11474;50.790;0.298;2023-10-31T00:33:03;13.10;;;6.75;;
22614;SDS011;11474;50.790;0.298;2023-10-31T00:35:29;11.80;;;5.60;;
22614;SDS011;11474;50.790;0.298;2023-10-31T00:37:56;11.98;;;5.30;;
22614;SDS011;11474;50.790;0.298;2023-10-31T00:40:22;10.27;;;5.20;;
22614;SDS011;11474;50.790;0.298;2023-10-31T00:42:48;9.63;;;5.40;;
22614;SDS011;11474;50.790;0.298;2023-10-31T00:45:14;8.53;;;4.67;;
22614;SDS011;11474;50.790;0.298;2023-10-31T00:47:40;11.02;;;5.22;;
22614;SDS011;11474;50.790;0.298;2023-10-31T00:50:06;11.87;;;4.90;;
22614;SDS011;11474;50.790;0.298;2023-10-31T00:52:33;16.48;;;5.38;;
22614;SDS011;11474;50.790;0.298;2023-10-31T00:54:59;12.75;;;4.80;;
22614;SDS011;11474;50.790;0.298;2023-10-31T00:57:25;9.70;;;5.15;;
22614;SDS011;11474;50.790;0.298;2023-10-31T00:59:51;10.55;;;5.55;;
22614;SDS011;11474;50.790;0.298;2023-10-31T01:02:17;9.93;;;4.25;;
22614;SDS011;11474;50.790;0.298;2023-10-31T01:04:43;8.88;;;5.57;;
22614;SDS011;11474;50.790;0.298;2023-10-31T01:07:09;10.20;;;5.65;;
22614;SDS011;11474;50.790;0.298;2023-10-31T01:09:37;12.02;;;5.93;;
22614;SDS011;11474;50.790;0.298;2023-10-31T01:12:04;9.55;;;5.50;;
22614;SDS011;11474;50.790;0.298;2023-10-31T01:14:30;12.00;;;5.50;;
22614;SDS011;11474;50.790;0.298;2023-10-31T01:16:56;13.65;;;5.28;;
22614;SDS011;11474;50.790;0.298;2023-10-31T01:19:22;9.65;;;5.28;;
22614;SDS011;11474;50.790;0.298;2023-10-31T01:21:48;9.18;;;5.10;;
22614;SDS011;11474;50.790;0.298;2023-10-31T01:24:14;8.50;;;5.30;;
22614;SDS011;11474;50.790;0.298;2023-10-31T01:26:40;11.25;;;5.63;;
22614;SDS011;11474;50.790;0.298;2023-10-31T01:29:06;10.75;;;5.70;;
22614;SDS011;11474;50.790;0.298;2023-10-31T01:31:33;11.85;;;5.78;;
22614;SDS011;11474;50.790;0.298;2023-10-31T01:34:01;9.95;;;5.18;;
22614;SDS011;11474;50.790;0.298;2023-10-31T01:36:28;9.65;;;5.78;;
22614;SDS011;11474;50.790;0.298;2023-10-31T01:38:54;13.00;;;5.43;;
22614;SDS011;11474;50.790;0.298;2023-10-31T01:41:20;11.50;;;6.18;;
22614;SDS011;11474;50.790;0.298;2023-10-31T01:43:46;12.27;;;5.90;;
22614;SDS011;11474;50.790;0.298;2023-10-31T01:46:12;12.43;;;6.50;;
22614;SDS011;11474;50.790;0.298;2023-10-31T01:48:38;12.10;;;6.03;;
22614;SDS011;11474;50.790;0.298;2023-10-31T01:51:04;9.57;;;5.97;;
22614;SDS011;11474;50.790;0.298;2023-10-31T01:53:32;10.75;;;6.10;;
22614;SDS011;11474;50.790;0.298;2023-10-31T01:56:01;10.45;;;5.75;;
22614;SDS011;11474;50.790;0.298;2023-10-31T01:58:36;11.95;;;6.63;;
22614;SDS011;11474;50.790;0.298;2023-10-31T02:01:03;12.65;;;6.30;;
22614;SDS011;11474;50.790;0.298;2023-10-31T02:03:30;15.93;;;7.18;;
22614;SDS011;11474;50.790;0.298;2023-10-31T02:05:56;12.02;;;6.75;;
22614;SDS011;11474;50.790;0.298;2023-10-31T02:08:24;14.85;;;7.10;;
22614;SDS011;11474;50.790;0.298;2023-10-31T02:10:50;11.80;;;6.30;;
22614;SDS011;11474;50.790;0.298;2023-10-31T02:13:17;10.68;;;6.72;;
22614;SDS011;11474;50.790;0.298;2023-10-31T02:15:44;12.68;;;6.80;;
22614;SDS011;11474;50.790;0.298;2023-10-31T02:18:10;12.73;;;6.22;;
22614;SDS011;11474;50.790;0.298;2023-10-31T02:20:36;11.10;;;6.30;;
22614;SDS011;11474;50.790;0.298;2023-10-31T02:23:03;10.85;;;6.53;;
22614;SDS011;11474;50.790;0.298;2023-10-31T02:25:29;12.30;;;6.55;;
22614;SDS011;11474;50.790;0.298;2023-10-31T02:27:55;9.90;;;6.00;;
22614;SDS011;11474;50.790;0.298;2023-10-31T02:30:22;9.65;;;5.80;;
22614;SDS011;11474;50.790;0.298;2023-10-31T02:32:49;12.27;;;6.10;;
22614;SDS011;11474;50.790;0.298;2023-10-31T02:35:18;9.88;;;5.55;;
22614;SDS011;11474;50.790;0.298;2023-10-31T02:37:45;7.95;;;4.60;;
22614;SDS011;11474;50.790;0.298;2023-10-31T02:40:11;10.15;;;5.03;;
22614;SDS011;11474;50.790;0.298;2023-10-31T02:42:38;8.73;;;4.07;;
22614;SDS011;11474;50.790;0.298;2023-10-31T02:45:04;8.63;;;4.17;;
22614;SDS011;11474;50.790;0.298;2023-10-31T02:47:30;8.40;;;4.10;;
22614;SDS011;11474;50.790;0.298;2023-10-31T02:49:56;9.75;;;4.07;;
22614;SDS011;11474;50.790;0.298;2023-10-31T02:52:22;7.72;;;3.47;;
22614;SDS011;11474;50.790;0.298;2023-10-31T02:54:49;8.98;;;3.50;;
22614;SDS011;11474;50.790;0.298;2023-10-31T02:57:15;7.65;;;3.80;;
22614;SDS011;11474;50.790;0.298;2023-10-31T02:59:42;6.55;;;3.65;;
22614;SDS011;11474;50.790;0.298;2023-10-31T03:02:08;8.70;;;3.60;;
22614;SDS011;11474;50.790;0.298;2023-10-31T03:04:34;6.70;;;3.38;;
22614;SDS011;11474;50.790;0.298;2023-10-31T03:07:00;7.60;;;3.65;;
22614;SDS011;11474;50.790;0.298;2023-10-31T03:09:26;8.90;;;4.43;;
22614;SDS011;11474;50.790;0.298;2023-10-31T03:11:52;17.38;;;6.50;;
22614;SDS011;11474;50.790;0.298;2023-10-31T03:14:19;13.65;;;6.35;;
22614;SDS011;11474;50.790;0.298;2023-10-31T03:16:45;12.75;;;6.25;;
22614;SDS011;11474;50.790;0.298;2023-10-31T03:19:11;12.18;;;5.97;;
22614;SDS011;11474;50.790;0.298;2023-10-31T03:21:37;12.45;;;6.13;;
22614;SDS011;11474;50.790;0.298;2023-10-31T03:24:04;10.52;;;5.22;;
22614;SDS011;11474;50.790;0.298;2023-10-31T03:26:30;11.10;;;7.17;;
22614;SDS011;11474;50.790;0.298;2023-10-31T03:28:56;15.82;;;6.78;;
22614;SDS011;11474;50.790;0.298;2023-10-31T03:31:23;13.17;;;6.60;;
22614;SDS011;11474;50.790;0.298;2023-10-31T03:33:49;17.45;;;7.32;;
22614;SDS011;11474;50.790;0.298;2023-10-31T03:36:16;14.32;;;6.35;;
22614;SDS011;11474;50.790;0.298;2023-10-31T03:38:42;12.23;;;5.95;;
22614;SDS011;11474;50.790;0.298;2023-10-31T03:41:08;13.77;;;6.00;;
22614;SDS011;11474;50.790;0.298;2023-10-31T03:43:35;15.23;;;5.18;;
22614;SDS011;11474;50.790;0.298;2023-10-31T03:46:01;8.70;;;5.00;;
22614;SDS011;11474;50.790;0.298;2023-10-31T03:48:27;11.88;;;5.57;;
22614;SDS011;11474;50.790;0.298;2023-10-31T03:50:53;12.65;;;6.03;;
22614;SDS011;11474;50.790;0.298;2023-10-31T03:53:19;17.23;;;6.28;;
22614;SDS011;11474;50.790;0.298;2023-10-31T03:55:45;13.18;;;6.15;;
22614;SDS011;11474;50.790;0.298;2023-10-31T03:58:11;11.45;;;5.15;;
22614;SDS011;11474;50.790;0.298;2023-10-31T04:00:38;11.00;;;5.25;;
22614;SDS011;11474;50.790;0.298;2023-10-31T04:03:07;12.32;;;5.50;;
22614;SDS011;11474;50.790;0.298;2023-10-31T04:05:33;13.23;;;5.22;;
22614;SDS011;11474;50.790;0.298;2023-10-31T04:07:59;9.88;;;4.78;;
22614;SDS011;11474;50.790;0.298;2023-10-31T04:10:25;12.93;;;5.07;;
22614;SDS011;11474;50.790;0.298;2023-10-31T04:12:51;11.27;;;5.32;;
22614;SDS011;11474;50.790;0.298;2023-10-31T04:15:18;13.57;;;5.57;;
22614;SDS011;11474;50.790;0.298;2023-10-31T04:17:44;11.48;;;5.80;;
22614;SDS011;11474;50.790;0.298;2023-10-31T04:20:10;16.27;;;6.10;;
22614;SDS011;11474;50.790;0.298;2023-10-31T04:22:36;13.07;;;5.45;;
22614;SDS011;11474;50.790;0.298;2023-10-31T04:25:03;13.57;;;5.57;;
22614;SDS011;11474;50.790;0.298;2023-10-31T04:27:29;10.77;;;4.83;;
22614;SDS011;11474;50.790;0.298;2023-10-31T04:29:55;10.70;;;5.40;;
22614;SDS011;11474;50.790;0.298;2023-10-31T04:32:21;13.73;;;4.77;;
22614;SDS011;11474;50.790;0.298;2023-10-31T04:34:47;11.98;;;4.93;;
22614;SDS011;11474;50.790;0.298;2023-10-31T04:37:13;12.88;;;5.10;;
22614;SDS011;11474;50.790;0.298;2023-10-31T04:39:39;12.02;;;5.07;;
22614;SDS011;11474;50.790;0.298;2023-10-31T04:42:05;11.10;;;4.50;;
22614;SDS011;11474;50.790;0.298;2023-10-31T04:44:31;12.45;;;4.55;;
22614;SDS011;11474;50.790;0.298;2023-10-31T04:46:57;13.43;;;5.07;;
22614;SDS011;11474;50.790;0.298;2023-10-31T04:49:23;11.05;;;3.90;;
22614;SDS011;11474;50.790;0.298;2023-10-31T04:51:49;13.43;;;3.22;;
22614;SDS011;11474;50.790;0.298;2023-10-31T04:54:15;8.80;;;2.30;;
22614;SDS011;11474;50.790;0.298;2023-10-31T04:56:42;7.53;;;2.78;;
22614;SDS011;11474;50.790;0.298;2023-10-31T04:59:08;7.15;;;2.40;;
22614;SDS011;11474;50.790;0.298;2023-10-31T05:01:34;10.35;;;2.88;;
22614;SDS011;11474;50.790;0.298;2023-10-31T05:04:00;13.00;;;3.10;;
22614;SDS011;11474;50.790;0.298;2023-10-31T05:06:26;10.40;;;3.22;;
22614;SDS011;11474;50.790;0.298;2023-10-31T05:08:52;7.30;;;2.30;;
22614;SDS011;11474;50.790;0.298;2023-10-31T05:11:18;10.07;;;2.42;;
22614;SDS011;11474;50.790;0.298;2023-10-31T05:13:45;9.77;;;2.40;;
22614;SDS011;11474;50.790;0.298;2023-10-31T05:16:11;9.52;;;2.90;;
22614;SDS011;11474;50.790;0.298;2023-10-31T05:18:37;9.52;;;2.45;;
22614;SDS011;11474;50.790;0.298;2023-10-31T05:21:04;8.55;;;2.67;;
22614;SDS011;11474;50.790;0.298;2023-10-31T05:23:30;10.10;;;2.40;;
22614;SDS011;11474;50.790;0.298;2023-10-31T05:25:57;14.55;;;3.20;;
22614;SDS011;11474;50.790;0.298;2023-10-31T05:28:23;11.18;;;2.50;;
22614;SDS011;11474;50.790;0.298;2023-10-31T05:30:49;8.75;;;2.15;;
22614;SDS011;11474;50.790;0.298;2023-10-31T05:33:16;9.95;;;2.58;;
22614;SDS011;11474;50.790;0.298;2023-10-31T05:35:42;11.65;;;2.03;;
22614;SDS011;11474;50.790;0.298;2023-10-31T05:38:08;8.73;;;2.20;;
22614;SDS011;11474;50.790;0.298;2023-10-31T05:40:34;12.60;;;2.30;;
22614;SDS011;11474;50.790;0.298;2023-10-31T05:43:01;8.52;;;2.20;;
22614;SDS011;11474;50.790;0.298;2023-10-31T05:45:27;6.13;;;2.20;;
22614;SDS011;11474;50.790;0.298;2023-10-31T05:47:54;10.75;;;2.42;;
22614;SDS011;11474;50.790;0.298;2023-10-31T05:50:20;8.70;;;2.25;;
22614;SDS011;11474;50.790;0.298;2023-10-31T05:52:46;12.30;;;2.42;;
22614;SDS011;11474;50.790;0.298;2023-10-31T05:55:12;8.63;;;2.40;;
22614;SDS011;11474;50.790;0.298;2023-10-31T05:57:39;9.77;;;2.58;;
22614;SDS011;11474;50.790;0.298;2023-10-31T06:00:05;12.23;;;2.37;;
22614;SDS011;11474;50.790;0.298;2023-10-31T06:02:32;11.40;;;2.33;;
22614;SDS011;11474;50.790;0.298;2023-10-31T06:04:58;10.35;;;2.03;;
22614;SDS011;11474;50.790;0.298;2023-10-31T06:07:25;9.10;;;1.57;;
22614;SDS011;11474;50.790;0.298;2023-10-31T06:09:51;9.63;;;1.60;;
22614;SDS011;11474;50.790;0.298;2023-10-31T06:12:17;9.10;;;1.70;;
22614;SDS011;11474;50.790;0.298;2023-10-31T06:14:43;10.90;;;2.10;;
22614;SDS011;11474;50.790;0.298;2023-10-31T06:17:09;8.20;;;1.88;;
22614;SDS011;11474;50.790;0.298;2023-10-31T06:19:35;9.15;;;2.05;;
22614;SDS011;11474;50.790;0.298;2023-10-31T06:22:02;12.07;;;2.00;;
22614;SDS011;11474;50.790;0.298;2023-10-31T06:24:28;16.70;;;1.77;;
22614;SDS011;11474;50.790;0.298;2023-10-31T06:26:54;8.95;;;2.20;;
22614;SDS011;11474;50.790;0.298;2023-10-31T06:29:20;14.93;;;1.87;;
22614;SDS011;11474;50.790;0.298;2023-10-31T06:31:46;13.50;;;1.88;;
22614;SDS011;11474;50.790;0.298;2023-10-31T06:34:13;15.30;;;1.90;;
22614;SDS011;11474;50.790;0.298;2023-10-31T06:36:39;19.42;;;2.15;;
22614;SDS011;11474;50.790;0.298;2023-10-31T06:39:05;8.43;;;1.90;;
22614;SDS011;11474;50.790;0.298;2023-10-31T06:41:31;9.30;;;1.80;;
22614;SDS011;11474;50.790;0.298;2023-10-31T06:43:57;10.10;;;1.90;;
22614;SDS011;11474;50.790;0.298;2023-10-31T06:46:23;11.23;;;2.03;;
22614;SDS011;11474;50.790;0.298;2023-10-31T06:48:49;10.30;;;1.77;;
22614;SDS011;11474;50.790;0.298;2023-10-31T06:51:15;8.93;;;1.80;;
22614;SDS011;11474;50.790;0.298;2023-10-31T06:53:41;12.68;;;1.88;;
22614;SDS011;11474;50.790;0.298;2023-10-31T06:56:08;13.90;;;1.98;;
22614;SDS011;11474;50.790;0.298;2023-10-31T06:58:34;13.95;;;1.73;;
22614;SDS011;11474;50.790;0.298;2023-10-31T07:01:00;9.95;;;1.52;;
22614;SDS011;11474;50.790;0.298;2023-10-31T07:03:26;10.52;;;1.77;;
22614;SDS011;11474;50.790;0.298;2023-10-31T07:05:52;10.23;;;1.60;;
22614;SDS011;11474;50.790;0.298;2023-10-31T07:08:21;4.60;;;1.45;;
22614;SDS011;11474;50.790;0.298;2023-10-31T07:10:47;8.35;;;1.40;;
22614;SDS011;11474;50.790;0.298;2023-10-31T07:13:13;12.57;;;1.40;;
22614;SDS011;11474;50.790;0.298;2023-10-31T07:15:39;11.98;;;1.60;;
22614;SDS011;11474;50.790;0.298;2023-10-31T07:18:05;11.27;;;1.65;;
22614;SDS011;11474;50.790;0.298;2023-10-31T07:20:35;14.47;;;2.30;;
22614;SDS011;11474;50.790;0.298;2023-10-31T07:23:01;7.82;;;1.95;;
22614;SDS011;11474;50.790;0.298;2023-10-31T07:25:27;13.18;;;1.95;;
22614;SDS011;11474;50.790;0.298;2023-10-31T07:27:53;8.43;;;1.50;;
22614;SDS011;11474;50.790;0.298;2023-10-31T07:30:19;9.60;;;1.73;;
22614;SDS011;11474;50.790;0.298;2023-10-31T07:32:45;13.10;;;3.20;;
22614;SDS011;11474;50.790;0.298;2023-10-31T07:35:11;10.98;;;2.28;;
22614;SDS011;11474;50.790;0.298;2023-10-31T07:37:37;14.65;;;1.60;;
22614;SDS011;11474;50.790;0.298;2023-10-31T07:40:04;8.18;;;1.50;;
22614;SDS011;11474;50.790;0.298;2023-10-31T07:42:30;11.93;;;1.70;;
22614;SDS011;11474;50.790;0.298;2023-10-31T07:44:56;12.32;;;2.20;;
22614;SDS011;11474;50.790;0.298;2023-10-31T07:47:22;13.23;;;2.05;;
22614;SDS011;11474;50.790;0.298;2023-10-31T07:49:48;13.20;;;2.47;;
22614;SDS011;11474;50.790;0.298;2023-10-31T07:52:15;12.45;;;1.90;;
22614;SDS011;11474;50.790;0.298;2023-10-31T07:54:41;15.90;;;2.30;;
22614;SDS011;11474;50.790;0.298;2023-10-31T07:57:07;10.13;;;1.88;;
22614;SDS011;11474;50.790;0.298;2023-10-31T07:59:33;11.20;;;1.70;;
22614;SDS011;11474;50.790;0.298;2023-10-31T08:02:00;9.02;;;1.95;;
22614;SDS011;11474;50.790;0.298;2023-10-31T08:04:26;16.88;;;2.15;;
22614;SDS011;11474;50.790;0.298;2023-10-31T08:06:53;13.13;;;1.90;;
22614;SDS011;11474;50.790;0.298;2023-10-31T08:09:19;9.57;;;2.08;;
22614;SDS011;11474;50.790;0.298;2023-10-31T08:11:45;11.13;;;2.00;;
22614;SDS011;11474;50.790;0.298;2023-10-31T08:14:11;11.38;;;2.03;;
22614;SDS011;11474;50.790;0.298;2023-10-31T08:16:38;15.10;;;2.40;;
22614;SDS011;11474;50.790;0.298;2023-10-31T08:19:04;9.23;;;1.70;;
22614;SDS011;11474;50.790;0.298;2023-10-31T08:21:30;14.30;;;2.85;;
22614;SDS011;11474;50.790;0.298;2023-10-31T08:24:02;16.67;;;2.95;;
22614;SDS011;11474;50.790;0.298;2023-10-31T08:26:29;17.55;;;2.60;;
22614;SDS011;11474;50.790;0.298;2023-10-31T08:28:56;9.98;;;1.98;;
22614;SDS011;11474;50.790;0.298;2023-10-31T08:31:22;20.70;;;3.08;;
22614;SDS011;11474;50.790;0.298;2023-10-31T08:33:48;9.93;;;1.95;;
22614;SDS011;11474;50.790;0.298;2023-10-31T08:36:14;18.10;;;2.38;;
22614;SDS011;11474;50.790;0.298;2023-10-31T08:38:41;8.00;;;1.83;;
22614;SDS011;11474;50.790;0.298;2023-10-31T08:41:07;10.65;;;1.70;;
22614;SDS011;11474;50.790;0.298;2023-10-31T08:43:33;6.05;;;2.08;;
22614;SDS011;11474;50.790;0.298;2023-10-31T08:45:59;12.25;;;2.20;;
22614;SDS011;11474;50.790;0.298;2023-10-31T08:48:26;12.75;;;2.10;;
22614;SDS011;11474;50.790;0.298;2023-10-31T08:50:52;5.27;;;1.50;;
22614;SDS011;11474;50.790;0.298;2023-10-31T08:53:18;9.20;;;1.90;;
22614;SDS011;11474;50.790;0.298;2023-10-31T08:55:44;6.60;;;1.33;;
22614;SDS011;11474;50.790;0.298;2023-10-31T08:58:10;9.15;;;1.85;;
22614;SDS011;11474;50.790;0.298;2023-10-31T09:00:38;11.03;;;1.70;;
22614;SDS011;11474;50.790;0.298;2023-10-31T09:03:05;9.73;;;1.85;;
22614;SDS011;11474;50.790;0.298;2023-10-31T09:05:32;7.60;;;1.50;;
22614;SDS011;11474;50.790;0.298;2023-10-31T09:07:58;5.67;;;1.40;;
22614;SDS011;11474;50.790;0.298;2023-10-31T09:10:24;6.70;;;1.05;;
22614;SDS011;11474;50.790;0.298;2023-10-31T09:12:50;5.30;;;1.20;;
22614;SDS011;11474;50.790;0.298;2023-10-31T09:15:16;6.13;;;0.90;;
22614;SDS011;11474;50.790;0.298;2023-10-31T09:17:44;4.47;;;1.23;;
22614;SDS011;11474;50.790;0.298;2023-10-31T09:20:10;2.97;;;1.00;;
22614;SDS011;11474;50.790;0.298;2023-10-31T09:22:37;5.60;;;1.00;;
22614;SDS011;11474;50.790;0.298;2023-10-31T09:25:03;8.15;;;1.88;;
22614;SDS011;11474;50.790;0.298;2023-10-31T09:27:29;7.97;;;2.35;;
22614;SDS011;11474;50.790;0.298;2023-10-31T09:29:56;4.45;;;1.52;;
22614;SDS011;11474;50.790;0.298;2023-10-31T09:32:22;7.95;;;1.60;;
22614;SDS011;11474;50.790;0.298;2023-10-31T09:34:48;9.05;;;3.67;;
22614;SDS011;11474;50.790;0.298;2023-10-31T09:37:14;8.75;;;4.40;;
22614;SDS011;11474;50.790;0.298;2023-10-31T09:39:40;10.40;;;2.53;;
22614;SDS011;11474;50.790;0.298;2023-10-31T09:42:07;4.85;;;1.25;;
22614;SDS011;11474;50.790;0.298;2023-10-31T09:44:33;7.10;;;1.42;;
22614;SDS011;11474;50.790;0.298;2023-10-31T09:47:00;6.50;;;1.60;;
22614;SDS011;11474;50.790;0.298;2023-10-31T09:49:26;7.30;;;1.70;;
22614;SDS011;11474;50.790;0.298;2023-10-31T09:51:53;8.07;;;1.27;;
22614;SDS011;11474;50.790;0.298;2023-10-31T09:54:19;10.95;;;1.58;;
22614;SDS011;11474;50.790;0.298;2023-10-31T09:56:45;10.30;;;2.08;;
22614;SDS011;11474;50.790;0.298;2023-10-31T09:59:13;9.80;;;1.77;;
22614;SDS011;11474;50.790;0.298;2023-10-31T10:01:40;7.38;;;1.33;;
22614;SDS011;11474;50.790;0.298;2023-10-31T10:04:07;7.50;;;1.60;;
22614;SDS011;11474;50.790;0.298;2023-10-31T10:06:33;8.17;;;1.30;;
22614;SDS011;11474;50.790;0.298;2023-10-31T10:08:59;7.75;;;1.90;;
22614;SDS011;11474;50.790;0.298;2023-10-31T10:11:29;6.97;;;1.50;;
22614;SDS011;11474;50.790;0.298;2023-10-31T10:13:57;6.50;;;1.35;;
22614;SDS011;11474;50.790;0.298;2023-10-31T10:16:30;7.50;;;1.67;;
22614;SDS011;11474;50.790;0.298;2023-10-31T10:18:56;7.00;;;1.60;;
22614;SDS011;11474;50.790;0.298;2023-10-31T10:21:22;5.70;;;1.40;;
22614;SDS011;11474;50.790;0.298;2023-10-31T10:23:51;8.25;;;1.52;;
22614;SDS011;11474;50.790;0.298;2023-10-31T10:26:18;6.63;;;1.33;;
22614;SDS011;11474;50.790;0.298;2023-10-31T10:28:50;9.10;;;1.45;;
22614;SDS011;11474;50.790;0.298;2023-10-31T10:31:16;11.33;;;1.60;;
22614;SDS011;11474;50.790;0.298;2023-10-31T10:33:42;8.32;;;1.77;;
22614;SDS011;11474;50.790;0.298;2023-10-31T10:36:09;6.55;;;1.23;;
22614;SDS011;11474;50.790;0.298;2023-10-31T10:38:36;8.10;;;1.58;;
22614;SDS011;11474;50.790;0.298;2023-10-31T10:41:03;4.25;;;1.40;;
22614;SDS011;11474;50.790;0.298;2023-10-31T10:43:31;6.45;;;1.50;;
22614;SDS011;11474;50.790;0.298;2023-10-31T10:46:01;10.95;;;1.77;;
22614;SDS011;11474;50.790;0.298;2023-10-31T10:48:28;7.70;;;1.88;;
22614;SDS011;11474;50.790;0.298;2023-10-31T10:54:08;9.88;;;1.90;;
22614;SDS011;11474;50.790;0.298;2023-10-31T10:56:37;10.65;;;2.03;;
22614;SDS011;11474;50.790;0.298;2023-10-31T10:59:18;10.25;;;1.95;;
22614;SDS011;11474;50.790;0.298;2023-10-31T11:01:45;12.82;;;1.95;;
22614;SDS011;11474;50.790;0.298;2023-10-31T11:04:13;14.65;;;2.10;;
22614;SDS011;11474;50.790;0.298;2023-10-31T11:06:40;12.73;;;2.03;;
22614;SDS011;11474;50.790;0.298;2023-10-31T11:09:06;10.57;;;2.00;;
22614;SDS011;11474;50.790;0.298;2023-10-31T11:11:33;13.40;;;2.10;;
22614;SDS011;11474;50.790;0.298;2023-10-31T11:14:00;11.80;;;1.80;;
22614;SDS011;11474;50.790;0.298;2023-10-31T11:16:30;13.70;;;2.33;;
22614;SDS011;11474;50.790;0.298;2023-10-31T11:19:00;13.15;;;1.98;;
22614;SDS011;11474;50.790;0.298;2023-10-31T11:21:29;12.27;;;2.20;;
22614;SDS011;11474;50.790;0.298;2023-10-31T11:23:58;8.80;;;2.00;;
22614;SDS011;11474;50.790;0.298;2023-10-31T11:26:29;9.25;;;1.83;;
22614;SDS011;11474;50.790;0.298;2023-10-31T11:29:06;12.48;;;2.63;;
22614;SDS011;11474;50.790;0.298;2023-10-31T11:31:33;8.80;;;1.55;;
22614;SDS011;11474;50.790;0.298;2023-10-31T11:34:01;13.55;;;1.98;;
22614;SDS011;11474;50.790;0.298;2023-10-31T11:36:30;7.65;;;1.85;;
22614;SDS011;11474;50.790;0.298;2023-10-31T11:39:12;8.13;;;1.60;;
22614;SDS011;11474;50.790;0.298;2023-10-31T11:41:38;8.95;;;2.00;;
22614;SDS011;11474;50.790;0.298;2023-10-31T11:44:04;13.07;;;2.78;;
22614;SDS011;11474;50.790;0.298;2023-10-31T11:46:30;13.02;;;2.45;;
22614;SDS011;11474;50.790;0.298;2023-10-31T11:48:57;10.95;;;1.95;;
22614;SDS011;11474;50.790;0.298;2023-10-31T11:51:25;14.50;;;2.20;;
22614;SDS011;11474;50.790;0.298;2023-10-31T11:53:51;7.88;;;1.70;;
22614;SDS011;11474;50.790;0.298;2023-10-31T11:56:18;8.60;;;1.73;;
22614;SDS011;11474;50.790;0.298;2023-10-31T11:58:44;8.63;;;1.70;;
22614;SDS011;11474;50.790;0.298;2023-10-31T12:01:11;11.13;;;1.73;;
22614;SDS011;11474;50.790;0.298;2023-10-31T12:03:41;14.63;;;1.90;;
22614;SDS011;11474;50.790;0.298;2023-10-31T12:06:07;10.18;;;2.05;;
22614;SDS011;11474;50.790;0.298;2023-10-31T12:08:35;10.57;;;2.03;;
22614;SDS011;11474;50.790;0.298;2023-10-31T12:13:31;9.80;;;1.80;;
22614;SDS011;11474;50.790;0.298;2023-10-31T12:15:57;7.80;;;1.95;;
22614;SDS011;11474;50.790;0.298;2023-10-31T12:18:26;8.52;;;2.00;;
22614;SDS011;11474;50.790;0.298;2023-10-31T12:20:52;9.57;;;1.88;;
22614;SDS011;11474;50.790;0.298;2023-10-31T12:23:18;13.82;;;2.03;;
22614;SDS011;11474;50.790;0.298;2023-10-31T12:25:48;11.67;;;2.33;;
22614;SDS011;11474;50.790;0.298;2023-10-31T12:28:17;13.70;;;2.75;;
22614;SDS011;11474;50.790;0.298;2023-10-31T12:30:44;12.55;;;2.20;;
22614;SDS011;11474;50.790;0.298;2023-10-31T12:33:11;11.02;;;1.80;;
22614;SDS011;11474;50.790;0.298;2023-10-31T12:35:38;14.55;;;2.30;;
22614;SDS011;11474;50.790;0.298;2023-10-31T12:38:04;11.13;;;2.15;;
22614;SDS011;11474;50.790;0.298;2023-10-31T12:40:31;12.00;;;1.90;;
22614;SDS011;11474;50.790;0.298;2023-10-31T12:42:57;8.52;;;1.77;;
22614;SDS011;11474;50.790;0.298;2023-10-31T12:45:24;11.65;;;1.80;;
22614;SDS011;11474;50.790;0.298;2023-10-31T12:50:46;12.05;;;2.50;;
22614;SDS011;11474;50.790;0.298;2023-10-31T12:53:22;12.88;;;2.17;;
22614;SDS011;11474;50.790;0.298;2023-10-31T12:55:49;12.48;;;2.20;;
22614;SDS011;11474;50.790;0.298;2023-10-31T12:58:21;12.55;;;2.30;;
22614;SDS011;11474;50.790;0.298;2023-10-31T13:00:48;13.07;;;2.08;;
22614;SDS011;11474;50.790;0.298;2023-10-31T13:03:14;11.52;;;2.28;;
22614;SDS011;11474;50.790;0.298;2023-10-31T13:05:41;12.00;;;2.05;;
22614;SDS011;11474;50.790;0.298;2023-10-31T13:08:13;15.13;;;2.60;;
22614;SDS011;11474;50.790;0.298;2023-10-31T13:10:40;14.02;;;2.38;;
22614;SDS011;11474;50.790;0.298;2023-10-31T13:13:08;13.52;;;2.40;;
22614;SDS011;11474;50.790;0.298;2023-10-31T13:15:34;11.90;;;2.50;;
22614;SDS011;11474;50.790;0.298;2023-10-31T13:18:02;14.35;;;2.50;;
22614;SDS011;11474;50.790;0.298;2023-10-31T13:20:29;14.93;;;2.67;;
22614;SDS011;11474;50.790;0.298;2023-10-31T13:22:56;16.67;;;2.97;;
22614;SDS011;11474;50.790;0.298;2023-10-31T13:25:23;13.35;;;2.72;;
22614;SDS011;11474;50.790;0.298;2023-10-31T13:27:49;14.65;;;2.45;;
22614;SDS011;11474;50.790;0.298;2023-10-31T13:30:16;18.30;;;2.80;;
22614;SDS011;11474;50.790;0.298;2023-10-31T13:32:42;14.15;;;2.35;;
22614;SDS011;11474;50.790;0.298;2023-10-31T13:35:09;13.40;;;2.60;;
22614;SDS011;11474;50.790;0.298;2023-10-31T13:37:35;15.65;;;2.53;;
22614;SDS011;11474;50.790;0.298;2023-10-31T13:40:02;16.50;;;2.63;;
22614;SDS011;11474;50.790;0.298;2023-10-31T13:42:28;17.55;;;2.85;;
22614;SDS011;11474;50.790;0.298;2023-10-31T13:44:54;16.77;;;2.78;;
22614;SDS011;11474;50.790;0.298;2023-10-31T13:47:20;14.27;;;3.10;;
22614;SDS011;11474;50.790;0.298;2023-10-31T13:49:46;16.10;;;2.50;;
22614;SDS011;11474;50.790;0.298;2023-10-31T13:52:13;18.75;;;3.60;;
22614;SDS011;11474;50.790;0.298;2023-10-31T13:54:40;14.05;;;2.45;;
22614;SDS011;11474;50.790;0.298;2023-10-31T13:57:06;19.48;;;3.28;;
22614;SDS011;11474;50.790;0.298;2023-10-31T13:59:32;14.93;;;2.70;;
22614;SDS011;11474;50.790;0.298;2023-10-31T14:01:59;17.15;;;3.35;;
22614;SDS011;11474;50.790;0.298;2023-10-31T14:04:25;17.42;;;2.42;;
22614;SDS011;11474;50.790;0.298;2023-10-31T14:06:54;15.60;;;2.70;;
22614;SDS011;11474;50.790;0.298;2023-10-31T14:09:20;14.45;;;2.60;;
22614;SDS011;11474;50.790;0.298;2023-10-31T14:11:46;17.80;;;2.67;;
22614;SDS011;11474;50.790;0.298;2023-10-31T14:14:12;17.13;;;2.58;;
22614;SDS011;11474;50.790;0.298;2023-10-31T14:16:39;15.35;;;2.50;;
22614;SDS011;11474;50.790;0.298;2023-10-31T14:19:05;12.55;;;2.35;;
22614;SDS011;11474;50.790;0.298;2023-10-31T14:21:32;12.63;;;2.53;;
22614;SDS011;11474;50.790;0.298;2023-10-31T14:23:59;14.80;;;2.30;;
22614;SDS011;11474;50.790;0.298;2023-10-31T14:26:26;14.35;;;2.58;;
22614;SDS011;11474;50.790;0.298;2023-10-31T14:28:53;21.25;;;3.00;;
22614;SDS011;11474;50.790;0.298;2023-10-31T14:31:19;16.88;;;2.70;;
22614;SDS011;11474;50.790;0.298;2023-10-31T14:33:46;15.10;;;3.08;;
22614;SDS011;11474;50.790;0.298;2023-10-31T14:36:12;19.58;;;3.40;;
22614;SDS011;11474;50.790;0.298;2023-10-31T14:38:39;19.08;;;3.42;;
22614;SDS011;11474;50.790;0.298;2023-10-31T14:41:05;19.73;;;2.97;;
22614;SDS011;11474;50.790;0.298;2023-10-31T14:43:32;22.90;;;3.70;;